sensor_id;sensor_type;location;lat;lon;timestamp;P1;durP1;ratioP1;P2;durP2;ratioP2
22985;SDS011;11659;51.092;7.080;2022-10-16T00:00:18;1.87;;;1.50;;
22985;SDS011;11659;51.092;7.080;2022-10-16T00:02:44;1.67;;;1.40;;
22985;SDS011;11659;51.092;7.080;2022-10-16T00:05:10;2.13;;;1.50;;
22985;SDS011;11659;51.092;7.080;2022-10-16T00:07:38;2.27;;;1.50;;
22985;SDS011;11659;51.092;7.080;2022-10-16T00:10:04;2.10;;;1.40;;
22985;SDS011;11659;51.092;7.080;2022-10-16T00:12:31;2.00;;;1.47;;
22985;SDS011;11659;51.092;7.080;2022-10-16T00:14:56;1.60;;;1.50;;
22985;SDS011;11659;51.092;7.080;2022-10-16T00:17:22;1.80;;;1.57;;
22985;SDS011;11659;51.092;7.080;2022-10-16T00:19:48;1.57;;;1.40;;
22985;SDS011;11659;51.092;7.080;2022-10-16T00:22:32;1.87;;;1.60;;
22985;SDS011;11659;51.092;7.080;2022-10-16T00:25:00;2.00;;;1.80;;
22985;SDS011;11659;51.092;7.080;2022-10-16T00:27:27;1.60;;;1.50;;
22985;SDS011;11659;51.092;7.080;2022-10-16T00:29:53;1.87;;;1.70;;
22985;SDS011;11659;51.092;7.080;2022-10-16T00:32:19;2.20;;;1.50;;
22985;SDS011;11659;51.092;7.080;2022-10-16T00:34:45;3.20;;;1.53;;
22985;SDS011;11659;51.092;7.080;2022-10-16T00:37:11;1.50;;;1.37;;
22985;SDS011;11659;51.092;7.080;2022-10-16T00:39:37;1.50;;;1.40;;
22985;SDS011;11659;51.092;7.080;2022-10-16T00:42:05;1.40;;;1.30;;
22985;SDS011;11659;51.092;7.080;2022-10-16T00:47:19;2.10;;;1.50;;
22985;SDS011;11659;51.092;7.080;2022-10-16T00:49:47;2.07;;;1.60;;
22985;SDS011;11659;51.092;7.080;2022-10-16T00:52:16;1.83;;;1.47;;
22985;SDS011;11659;51.092;7.080;2022-10-16T00:54:42;1.60;;;1.50;;
22985;SDS011;11659;51.092;7.080;2022-10-16T00:57:12;1.90;;;1.57;;
22985;SDS011;11659;51.092;7.080;2022-10-16T00:59:40;1.77;;;1.40;;
22985;SDS011;11659;51.092;7.080;2022-10-16T01:02:07;2.00;;;1.50;;
22985;SDS011;11659;51.092;7.080;2022-10-16T01:04:35;1.93;;;1.73;;
22985;SDS011;11659;51.092;7.080;2022-10-16T01:07:06;1.80;;;1.70;;
22985;SDS011;11659;51.092;7.080;2022-10-16T01:09:39;1.80;;;1.70;;
22985;SDS011;11659;51.092;7.080;2022-10-16T01:12:16;2.30;;;1.77;;
22985;SDS011;11659;51.092;7.080;2022-10-16T01:14:47;1.77;;;1.60;;
22985;SDS011;11659;51.092;7.080;2022-10-16T01:17:18;1.63;;;1.53;;
22985;SDS011;11659;51.092;7.080;2022-10-16T01:19:56;1.73;;;1.20;;
22985;SDS011;11659;51.092;7.080;2022-10-16T01:22:33;1.60;;;1.47;;
22985;SDS011;11659;51.092;7.080;2022-10-16T01:25:05;1.97;;;1.60;;
22985;SDS011;11659;51.092;7.080;2022-10-16T01:27:39;1.70;;;1.50;;
22985;SDS011;11659;51.092;7.080;2022-10-16T01:30:07;1.60;;;1.50;;
22985;SDS011;11659;51.092;7.080;2022-10-16T01:32:39;1.73;;;1.50;;
22985;SDS011;11659;51.092;7.080;2022-10-16T01:35:08;1.50;;;1.37;;
22985;SDS011;11659;51.092;7.080;2022-10-16T01:37:40;2.03;;;1.57;;
22985;SDS011;11659;51.092;7.080;2022-10-16T01:40:11;1.30;;;1.20;;
22985;SDS011;11659;51.092;7.080;2022-10-16T01:42:41;1.53;;;1.30;;
22985;SDS011;11659;51.092;7.080;2022-10-16T01:45:12;1.50;;;1.40;;
22985;SDS011;11659;51.092;7.080;2022-10-16T01:47:43;1.30;;;1.20;;
22985;SDS011;11659;51.092;7.080;2022-10-16T01:50:10;1.83;;;1.30;;
22985;SDS011;11659;51.092;7.080;2022-10-16T01:52:40;1.40;;;1.30;;
22985;SDS011;11659;51.092;7.080;2022-10-16T01:55:10;1.10;;;1.00;;
22985;SDS011;11659;51.092;7.080;2022-10-16T01:57:42;1.40;;;1.20;;
22985;SDS011;11659;51.092;7.080;2022-10-16T02:00:12;2.03;;;1.20;;
22985;SDS011;11659;51.092;7.080;2022-10-16T02:02:43;2.23;;;1.27;;
22985;SDS011;11659;51.092;7.080;2022-10-16T02:05:14;1.33;;;1.23;;
22985;SDS011;11659;51.092;7.080;2022-10-16T02:07:44;1.17;;;1.07;;
22985;SDS011;11659;51.092;7.080;2022-10-16T02:10:10;1.23;;;1.13;;
22985;SDS011;11659;51.092;7.080;2022-10-16T02:12:37;1.20;;;1.10;;
22985;SDS011;11659;51.092;7.080;2022-10-16T02:15:07;1.97;;;1.33;;
22985;SDS011;11659;51.092;7.080;2022-10-16T02:17:33;1.60;;;1.30;;
22985;SDS011;11659;51.092;7.080;2022-10-16T02:20:00;1.57;;;1.40;;
22985;SDS011;11659;51.092;7.080;2022-10-16T02:22:27;1.30;;;1.20;;
22985;SDS011;11659;51.092;7.080;2022-10-16T02:24:57;1.73;;;1.30;;
22985;SDS011;11659;51.092;7.080;2022-10-16T02:27:27;2.33;;;1.30;;
22985;SDS011;11659;51.092;7.080;2022-10-16T02:29:59;1.47;;;1.27;;
22985;SDS011;11659;51.092;7.080;2022-10-16T02:32:34;1.77;;;1.47;;
22985;SDS011;11659;51.092;7.080;2022-10-16T02:35:03;1.27;;;1.17;;
22985;SDS011;11659;51.092;7.080;2022-10-16T02:37:31;1.30;;;1.20;;
22985;SDS011;11659;51.092;7.080;2022-10-16T02:39:58;1.70;;;1.07;;
22985;SDS011;11659;51.092;7.080;2022-10-16T02:42:27;1.50;;;1.30;;
22985;SDS011;11659;51.092;7.080;2022-10-16T02:44:53;1.20;;;1.10;;
22985;SDS011;11659;51.092;7.080;2022-10-16T02:47:19;1.17;;;1.07;;
22985;SDS011;11659;51.092;7.080;2022-10-16T02:49:47;1.20;;;1.10;;
22985;SDS011;11659;51.092;7.080;2022-10-16T02:52:13;1.10;;;1.10;;
22985;SDS011;11659;51.092;7.080;2022-10-16T02:54:38;2.03;;;1.20;;
22985;SDS011;11659;51.092;7.080;2022-10-16T02:57:04;1.10;;;1.00;;
22985;SDS011;11659;51.092;7.080;2022-10-16T02:59:30;1.23;;;1.13;;
22985;SDS011;11659;51.092;7.080;2022-10-16T03:01:56;1.30;;;1.07;;
22985;SDS011;11659;51.092;7.080;2022-10-16T03:04:22;1.90;;;1.17;;
22985;SDS011;11659;51.092;7.080;2022-10-16T03:06:50;1.20;;;1.07;;
22985;SDS011;11659;51.092;7.080;2022-10-16T03:09:16;1.40;;;1.30;;
22985;SDS011;11659;51.092;7.080;2022-10-16T03:11:42;1.43;;;1.10;;
22985;SDS011;11659;51.092;7.080;2022-10-16T03:14:08;1.43;;;0.90;;
22985;SDS011;11659;51.092;7.080;2022-10-16T03:16:34;1.10;;;1.00;;
22985;SDS011;11659;51.092;7.080;2022-10-16T03:19:00;2.00;;;1.30;;
22985;SDS011;11659;51.092;7.080;2022-10-16T03:21:26;1.90;;;1.47;;
22985;SDS011;11659;51.092;7.080;2022-10-16T03:23:53;1.20;;;1.10;;
22985;SDS011;11659;51.092;7.080;2022-10-16T03:26:19;1.10;;;1.00;;
22985;SDS011;11659;51.092;7.080;2022-10-16T03:28:45;1.43;;;1.20;;
22985;SDS011;11659;51.092;7.080;2022-10-16T03:31:12;1.00;;;0.90;;
22985;SDS011;11659;51.092;7.080;2022-10-16T03:33:38;1.17;;;1.07;;
22985;SDS011;11659;51.092;7.080;2022-10-16T03:36:04;1.20;;;1.10;;
22985;SDS011;11659;51.092;7.080;2022-10-16T03:38:30;1.10;;;1.00;;
22985;SDS011;11659;51.092;7.080;2022-10-16T03:40:57;1.20;;;1.00;;
22985;SDS011;11659;51.092;7.080;2022-10-16T03:43:23;1.10;;;1.00;;
22985;SDS011;11659;51.092;7.080;2022-10-16T03:45:49;1.10;;;1.00;;
22985;SDS011;11659;51.092;7.080;2022-10-16T03:48:16;1.17;;;1.07;;
22985;SDS011;11659;51.092;7.080;2022-10-16T03:50:42;1.20;;;1.10;;
22985;SDS011;11659;51.092;7.080;2022-10-16T03:53:08;1.30;;;1.20;;
22985;SDS011;11659;51.092;7.080;2022-10-16T03:55:34;1.27;;;0.90;;
22985;SDS011;11659;51.092;7.080;2022-10-16T03:58:02;2.17;;;1.40;;
22985;SDS011;11659;51.092;7.080;2022-10-16T04:00:28;1.30;;;1.10;;
22985;SDS011;11659;51.092;7.080;2022-10-16T04:02:54;1.40;;;1.30;;
22985;SDS011;11659;51.092;7.080;2022-10-16T04:05:20;1.70;;;1.20;;
22985;SDS011;11659;51.092;7.080;2022-10-16T04:07:46;1.20;;;1.10;;
22985;SDS011;11659;51.092;7.080;2022-10-16T04:10:11;3.50;;;1.27;;
22985;SDS011;11659;51.092;7.080;2022-10-16T04:12:37;1.43;;;0.90;;
22985;SDS011;11659;51.092;7.080;2022-10-16T04:15:05;1.20;;;1.10;;
22985;SDS011;11659;51.092;7.080;2022-10-16T04:17:32;2.10;;;1.20;;
22985;SDS011;11659;51.092;7.080;2022-10-16T04:19:58;1.77;;;1.40;;
22985;SDS011;11659;51.092;7.080;2022-10-16T04:22:24;1.20;;;1.10;;
22985;SDS011;11659;51.092;7.080;2022-10-16T04:24:50;2.80;;;1.20;;
22985;SDS011;11659;51.092;7.080;2022-10-16T04:27:16;1.37;;;1.23;;
22985;SDS011;11659;51.092;7.080;2022-10-16T04:29:42;1.23;;;1.13;;
22985;SDS011;11659;51.092;7.080;2022-10-16T04:32:09;1.80;;;1.20;;
22985;SDS011;11659;51.092;7.080;2022-10-16T04:34:35;1.63;;;1.47;;
22985;SDS011;11659;51.092;7.080;2022-10-16T04:37:01;1.60;;;1.30;;
22985;SDS011;11659;51.092;7.080;2022-10-16T04:39:27;1.30;;;1.20;;
22985;SDS011;11659;51.092;7.080;2022-10-16T04:41:53;1.30;;;1.20;;
22985;SDS011;11659;51.092;7.080;2022-10-16T04:44:19;1.30;;;1.20;;
22985;SDS011;11659;51.092;7.080;2022-10-16T04:46:45;1.43;;;1.33;;
22985;SDS011;11659;51.092;7.080;2022-10-16T04:49:12;2.30;;;1.27;;
22985;SDS011;11659;51.092;7.080;2022-10-16T04:51:38;2.30;;;1.20;;
22985;SDS011;11659;51.092;7.080;2022-10-16T04:54:04;1.93;;;1.23;;
22985;SDS011;11659;51.092;7.080;2022-10-16T04:56:30;1.20;;;1.10;;
22985;SDS011;11659;51.092;7.080;2022-10-16T04:58:56;1.67;;;1.30;;
22985;SDS011;11659;51.092;7.080;2022-10-16T05:01:22;0.97;;;0.93;;
22985;SDS011;11659;51.092;7.080;2022-10-16T05:03:47;1.40;;;0.90;;
22985;SDS011;11659;51.092;7.080;2022-10-16T05:06:15;1.30;;;1.10;;
22985;SDS011;11659;51.092;7.080;2022-10-16T05:08:40;1.10;;;1.10;;
22985;SDS011;11659;51.092;7.080;2022-10-16T05:11:06;1.47;;;1.20;;
22985;SDS011;11659;51.092;7.080;2022-10-16T05:13:32;1.13;;;1.03;;
22985;SDS011;11659;51.092;7.080;2022-10-16T05:15:58;0.90;;;0.90;;
22985;SDS011;11659;51.092;7.080;2022-10-16T05:18:24;1.37;;;1.27;;
22985;SDS011;11659;51.092;7.080;2022-10-16T05:20:50;1.50;;;1.30;;
22985;SDS011;11659;51.092;7.080;2022-10-16T05:23:17;1.07;;;1.00;;
22985;SDS011;11659;51.092;7.080;2022-10-16T05:25:43;1.13;;;1.03;;
22985;SDS011;11659;51.092;7.080;2022-10-16T05:28:17;1.13;;;1.00;;
22985;SDS011;11659;51.092;7.080;2022-10-16T05:30:43;1.30;;;1.20;;
22985;SDS011;11659;51.092;7.080;2022-10-16T05:33:09;1.10;;;1.00;;
22985;SDS011;11659;51.092;7.080;2022-10-16T05:35:35;1.40;;;1.10;;
22985;SDS011;11659;51.092;7.080;2022-10-16T05:38:01;1.03;;;1.00;;
22985;SDS011;11659;51.092;7.080;2022-10-16T05:40:28;1.80;;;1.10;;
22985;SDS011;11659;51.092;7.080;2022-10-16T05:42:54;1.20;;;1.10;;
22985;SDS011;11659;51.092;7.080;2022-10-16T05:45:20;2.20;;;1.20;;
22985;SDS011;11659;51.092;7.080;2022-10-16T05:47:46;1.57;;;1.10;;
22985;SDS011;11659;51.092;7.080;2022-10-16T05:50:13;1.13;;;1.03;;
22985;SDS011;11659;51.092;7.080;2022-10-16T05:52:39;1.70;;;1.00;;
22985;SDS011;11659;51.092;7.080;2022-10-16T05:55:05;1.60;;;1.27;;
22985;SDS011;11659;51.092;7.080;2022-10-16T05:57:33;1.70;;;1.10;;
22985;SDS011;11659;51.092;7.080;2022-10-16T05:59:59;3.33;;;1.20;;
22985;SDS011;11659;51.092;7.080;2022-10-16T06:02:25;1.33;;;1.23;;
22985;SDS011;11659;51.092;7.080;2022-10-16T06:04:51;2.20;;;1.37;;
22985;SDS011;11659;51.092;7.080;2022-10-16T06:07:19;1.20;;;1.10;;
22985;SDS011;11659;51.092;7.080;2022-10-16T06:09:47;1.33;;;1.20;;
22985;SDS011;11659;51.092;7.080;2022-10-16T06:12:13;2.10;;;1.43;;
22985;SDS011;11659;51.092;7.080;2022-10-16T06:14:41;1.30;;;1.10;;
22985;SDS011;11659;51.092;7.080;2022-10-16T06:17:06;1.70;;;1.20;;
22985;SDS011;11659;51.092;7.080;2022-10-16T06:19:33;2.13;;;1.37;;
22985;SDS011;11659;51.092;7.080;2022-10-16T06:21:58;1.53;;;1.40;;
22985;SDS011;11659;51.092;7.080;2022-10-16T06:24:25;1.30;;;1.20;;
22985;SDS011;11659;51.092;7.080;2022-10-16T06:26:51;1.50;;;1.10;;
22985;SDS011;11659;51.092;7.080;2022-10-16T06:29:17;1.53;;;1.40;;
22985;SDS011;11659;51.092;7.080;2022-10-16T06:31:44;2.13;;;1.17;;
22985;SDS011;11659;51.092;7.080;2022-10-16T06:34:10;1.50;;;1.40;;
22985;SDS011;11659;51.092;7.080;2022-10-16T06:36:36;1.67;;;1.30;;
22985;SDS011;11659;51.092;7.080;2022-10-16T06:39:03;1.30;;;1.20;;
22985;SDS011;11659;51.092;7.080;2022-10-16T06:41:30;1.93;;;1.43;;
22985;SDS011;11659;51.092;7.080;2022-10-16T06:44:04;1.57;;;1.30;;
22985;SDS011;11659;51.092;7.080;2022-10-16T06:46:30;1.30;;;1.20;;
22985;SDS011;11659;51.092;7.080;2022-10-16T06:48:58;1.77;;;1.27;;
22985;SDS011;11659;51.092;7.080;2022-10-16T06:51:24;1.50;;;1.40;;
22985;SDS011;11659;51.092;7.080;2022-10-16T06:53:51;2.20;;;1.37;;
22985;SDS011;11659;51.092;7.080;2022-10-16T06:56:19;1.67;;;1.53;;
22985;SDS011;11659;51.092;7.080;2022-10-16T06:58:46;1.90;;;1.70;;
22985;SDS011;11659;51.092;7.080;2022-10-16T07:01:13;1.87;;;1.50;;
22985;SDS011;11659;51.092;7.080;2022-10-16T07:03:41;1.30;;;1.20;;
22985;SDS011;11659;51.092;7.080;2022-10-16T07:06:10;1.67;;;1.57;;
22985;SDS011;11659;51.092;7.080;2022-10-16T07:08:38;1.30;;;1.20;;
22985;SDS011;11659;51.092;7.080;2022-10-16T07:11:08;1.30;;;1.20;;
22985;SDS011;11659;51.092;7.080;2022-10-16T07:13:35;1.27;;;1.17;;
22985;SDS011;11659;51.092;7.080;2022-10-16T07:16:04;1.40;;;1.30;;
22985;SDS011;11659;51.092;7.080;2022-10-16T07:18:30;1.30;;;1.20;;
22985;SDS011;11659;51.092;7.080;2022-10-16T07:21:02;1.30;;;1.20;;
22985;SDS011;11659;51.092;7.080;2022-10-16T07:23:30;1.50;;;1.40;;
22985;SDS011;11659;51.092;7.080;2022-10-16T07:25:56;1.30;;;1.20;;
22985;SDS011;11659;51.092;7.080;2022-10-16T07:28:22;2.57;;;1.20;;
22985;SDS011;11659;51.092;7.080;2022-10-16T07:30:48;1.20;;;1.10;;
22985;SDS011;11659;51.092;7.080;2022-10-16T07:33:14;2.07;;;1.30;;
22985;SDS011;11659;51.092;7.080;2022-10-16T07:35:46;1.20;;;1.10;;
22985;SDS011;11659;51.092;7.080;2022-10-16T07:38:13;1.90;;;1.30;;
22985;SDS011;11659;51.092;7.080;2022-10-16T07:40:40;1.27;;;1.17;;
22985;SDS011;11659;51.092;7.080;2022-10-16T07:43:06;1.27;;;1.17;;
22985;SDS011;11659;51.092;7.080;2022-10-16T07:45:32;1.50;;;1.40;;
22985;SDS011;11659;51.092;7.080;2022-10-16T07:47:58;1.40;;;1.27;;
22985;SDS011;11659;51.092;7.080;2022-10-16T07:50:24;1.83;;;1.20;;
22985;SDS011;11659;51.092;7.080;2022-10-16T07:52:50;1.60;;;1.10;;
22985;SDS011;11659;51.092;7.080;2022-10-16T07:55:16;1.10;;;1.00;;
22985;SDS011;11659;51.092;7.080;2022-10-16T07:57:44;1.20;;;1.10;;
22985;SDS011;11659;51.092;7.080;2022-10-16T08:00:10;1.17;;;1.07;;
22985;SDS011;11659;51.092;7.080;2022-10-16T08:02:39;1.40;;;1.30;;
22985;SDS011;11659;51.092;7.080;2022-10-16T08:05:06;1.20;;;1.10;;
22985;SDS011;11659;51.092;7.080;2022-10-16T08:07:32;2.40;;;1.57;;
22985;SDS011;11659;51.092;7.080;2022-10-16T08:09:58;1.23;;;1.13;;
22985;SDS011;11659;51.092;7.080;2022-10-16T08:12:24;1.27;;;1.17;;
22985;SDS011;11659;51.092;7.080;2022-10-16T08:14:52;1.30;;;1.20;;
22985;SDS011;11659;51.092;7.080;2022-10-16T08:17:18;2.13;;;1.33;;
22985;SDS011;11659;51.092;7.080;2022-10-16T08:19:44;1.73;;;1.20;;
22985;SDS011;11659;51.092;7.080;2022-10-16T08:22:10;1.30;;;1.20;;
22985;SDS011;11659;51.092;7.080;2022-10-16T08:24:36;1.33;;;1.20;;
22985;SDS011;11659;51.092;7.080;2022-10-16T08:27:02;1.83;;;1.20;;
22985;SDS011;11659;51.092;7.080;2022-10-16T08:29:29;1.77;;;1.50;;
22985;SDS011;11659;51.092;7.080;2022-10-16T08:31:56;1.43;;;1.30;;
22985;SDS011;11659;51.092;7.080;2022-10-16T08:34:22;2.57;;;1.67;;
22985;SDS011;11659;51.092;7.080;2022-10-16T08:36:48;1.30;;;1.20;;
22985;SDS011;11659;51.092;7.080;2022-10-16T08:39:15;2.27;;;1.40;;
22985;SDS011;11659;51.092;7.080;2022-10-16T08:41:50;1.30;;;1.20;;
22985;SDS011;11659;51.092;7.080;2022-10-16T08:44:44;1.60;;;1.10;;
22985;SDS011;11659;51.092;7.080;2022-10-16T08:47:33;1.30;;;1.20;;
22985;SDS011;11659;51.092;7.080;2022-10-16T08:50:09;1.10;;;1.00;;
22985;SDS011;11659;51.092;7.080;2022-10-16T08:52:38;1.27;;;1.17;;
22985;SDS011;11659;51.092;7.080;2022-10-16T08:55:08;0.90;;;0.80;;
22985;SDS011;11659;51.092;7.080;2022-10-16T08:57:49;1.17;;;0.87;;
22985;SDS011;11659;51.092;7.080;2022-10-16T09:00:15;1.40;;;1.00;;
22985;SDS011;11659;51.092;7.080;2022-10-16T09:02:45;0.93;;;0.90;;
22985;SDS011;11659;51.092;7.080;2022-10-16T09:08:08;1.33;;;1.00;;
22985;SDS011;11659;51.092;7.080;2022-10-16T09:10:43;1.10;;;1.00;;
22985;SDS011;11659;51.092;7.080;2022-10-16T09:13:18;1.13;;;0.80;;
22985;SDS011;11659;51.092;7.080;2022-10-16T09:15:50;0.97;;;0.80;;
22985;SDS011;11659;51.092;7.080;2022-10-16T09:18:23;0.70;;;0.70;;
22985;SDS011;11659;51.092;7.080;2022-10-16T09:20:56;1.90;;;1.00;;
22985;SDS011;11659;51.092;7.080;2022-10-16T09:23:29;1.67;;;0.90;;
22985;SDS011;11659;51.092;7.080;2022-10-16T09:25:58;1.00;;;0.83;;
22985;SDS011;11659;51.092;7.080;2022-10-16T09:28:25;0.90;;;0.80;;
22985;SDS011;11659;51.092;7.080;2022-10-16T09:30:51;1.00;;;0.90;;
22985;SDS011;11659;51.092;7.080;2022-10-16T09:33:17;0.90;;;0.80;;
22985;SDS011;11659;51.092;7.080;2022-10-16T09:35:48;1.80;;;0.50;;
22985;SDS011;11659;51.092;7.080;2022-10-16T09:38:23;0.80;;;0.80;;
22985;SDS011;11659;51.092;7.080;2022-10-16T09:40:51;1.97;;;0.70;;
22985;SDS011;11659;51.092;7.080;2022-10-16T09:43:22;1.83;;;0.80;;
22985;SDS011;11659;51.092;7.080;2022-10-16T09:45:53;2.67;;;0.70;;
22985;SDS011;11659;51.092;7.080;2022-10-16T09:48:20;2.03;;;0.77;;
22985;SDS011;11659;51.092;7.080;2022-10-16T09:50:56;0.77;;;0.77;;
22985;SDS011;11659;51.092;7.080;2022-10-16T09:53:22;1.27;;;0.70;;
22985;SDS011;11659;51.092;7.080;2022-10-16T09:55:49;0.90;;;0.53;;
22985;SDS011;11659;51.092;7.080;2022-10-16T09:58:16;0.57;;;0.50;;
22985;SDS011;11659;51.092;7.080;2022-10-16T10:00:42;0.70;;;0.63;;
22985;SDS011;11659;51.092;7.080;2022-10-16T10:03:15;0.80;;;0.60;;
22985;SDS011;11659;51.092;7.080;2022-10-16T10:05:59;0.50;;;0.50;;
22985;SDS011;11659;51.092;7.080;2022-10-16T10:08:32;0.60;;;0.60;;
22985;SDS011;11659;51.092;7.080;2022-10-16T10:10:58;1.00;;;0.70;;
22985;SDS011;11659;51.092;7.080;2022-10-16T10:13:24;0.83;;;0.60;;
22985;SDS011;11659;51.092;7.080;2022-10-16T10:15:52;0.40;;;0.40;;
22985;SDS011;11659;51.092;7.080;2022-10-16T10:18:19;0.43;;;0.40;;
22985;SDS011;11659;51.092;7.080;2022-10-16T10:20:56;1.07;;;0.53;;
22985;SDS011;11659;51.092;7.080;2022-10-16T10:23:25;0.40;;;0.40;;
22985;SDS011;11659;51.092;7.080;2022-10-16T10:25:52;0.73;;;0.40;;
22985;SDS011;11659;51.092;7.080;2022-10-16T10:28:29;0.60;;;0.47;;
22985;SDS011;11659;51.092;7.080;2022-10-16T10:31:09;1.03;;;0.50;;
22985;SDS011;11659;51.092;7.080;2022-10-16T10:33:43;0.80;;;0.50;;
22985;SDS011;11659;51.092;7.080;2022-10-16T10:36:21;1.17;;;0.40;;
22985;SDS011;11659;51.092;7.080;2022-10-16T10:38:54;0.60;;;0.40;;
22985;SDS011;11659;51.092;7.080;2022-10-16T10:41:27;2.37;;;0.60;;
22985;SDS011;11659;51.092;7.080;2022-10-16T10:44:16;0.83;;;0.50;;
22985;SDS011;11659;51.092;7.080;2022-10-16T10:46:50;1.00;;;0.40;;
22985;SDS011;11659;51.092;7.080;2022-10-16T10:49:31;2.20;;;0.70;;
22985;SDS011;11659;51.092;7.080;2022-10-16T10:52:10;0.80;;;0.63;;
22985;SDS011;11659;51.092;7.080;2022-10-16T10:54:55;2.10;;;0.67;;
22985;SDS011;11659;51.092;7.080;2022-10-16T10:57:28;1.80;;;0.63;;
22985;SDS011;11659;51.092;7.080;2022-10-16T11:00:02;2.40;;;0.60;;
22985;SDS011;11659;51.092;7.080;2022-10-16T11:02:38;1.80;;;0.77;;
22985;SDS011;11659;51.092;7.080;2022-10-16T11:05:14;1.40;;;0.60;;
22985;SDS011;11659;51.092;7.080;2022-10-16T11:07:54;0.73;;;0.40;;
22985;SDS011;11659;51.092;7.080;2022-10-16T11:10:26;0.77;;;0.40;;
22985;SDS011;11659;51.092;7.080;2022-10-16T11:12:54;0.50;;;0.30;;
22985;SDS011;11659;51.092;7.080;2022-10-16T11:15:25;0.93;;;0.60;;
22985;SDS011;11659;51.092;7.080;2022-10-16T11:17:55;1.13;;;0.70;;
22985;SDS011;11659;51.092;7.080;2022-10-16T11:20:29;0.50;;;0.40;;
22985;SDS011;11659;51.092;7.080;2022-10-16T11:23:00;0.53;;;0.33;;
22985;SDS011;11659;51.092;7.080;2022-10-16T11:25:34;1.70;;;0.83;;
22985;SDS011;11659;51.092;7.080;2022-10-16T11:28:01;2.10;;;0.60;;
22985;SDS011;11659;51.092;7.080;2022-10-16T11:30:34;1.43;;;0.50;;
22985;SDS011;11659;51.092;7.080;2022-10-16T11:33:10;0.33;;;0.33;;
22985;SDS011;11659;51.092;7.080;2022-10-16T11:35:51;1.53;;;0.43;;
22985;SDS011;11659;51.092;7.080;2022-10-16T11:38:22;0.93;;;0.40;;
22985;SDS011;11659;51.092;7.080;2022-10-16T11:40:56;0.60;;;0.30;;
22985;SDS011;11659;51.092;7.080;2022-10-16T11:43:27;0.40;;;0.30;;
22985;SDS011;11659;51.092;7.080;2022-10-16T11:45:58;0.53;;;0.40;;
22985;SDS011;11659;51.092;7.080;2022-10-16T11:48:30;1.57;;;0.50;;
22985;SDS011;11659;51.092;7.080;2022-10-16T11:51:02;1.10;;;0.50;;
22985;SDS011;11659;51.092;7.080;2022-10-16T11:53:39;0.60;;;0.60;;
22985;SDS011;11659;51.092;7.080;2022-10-16T11:56:13;1.00;;;0.53;;
22985;SDS011;11659;51.092;7.080;2022-10-16T11:58:41;1.27;;;0.43;;
22985;SDS011;11659;51.092;7.080;2022-10-16T12:01:17;1.87;;;0.53;;
22985;SDS011;11659;51.092;7.080;2022-10-16T12:03:48;1.33;;;0.60;;
22985;SDS011;11659;51.092;7.080;2022-10-16T12:06:30;0.60;;;0.50;;
22985;SDS011;11659;51.092;7.080;2022-10-16T12:08:59;2.53;;;0.60;;
22985;SDS011;11659;51.092;7.080;2022-10-16T12:11:35;0.80;;;0.50;;
22985;SDS011;11659;51.092;7.080;2022-10-16T12:14:06;0.40;;;0.30;;
22985;SDS011;11659;51.092;7.080;2022-10-16T12:16:50;1.27;;;0.60;;
22985;SDS011;11659;51.092;7.080;2022-10-16T12:19:18;0.60;;;0.40;;
22985;SDS011;11659;51.092;7.080;2022-10-16T12:21:45;0.70;;;0.40;;
22985;SDS011;11659;51.092;7.080;2022-10-16T12:24:20;0.93;;;0.47;;
22985;SDS011;11659;51.092;7.080;2022-10-16T12:26:50;0.40;;;0.40;;
22985;SDS011;11659;51.092;7.080;2022-10-16T12:29:21;0.60;;;0.40;;
22985;SDS011;11659;51.092;7.080;2022-10-16T12:31:58;0.47;;;0.30;;
22985;SDS011;11659;51.092;7.080;2022-10-16T12:34:26;0.50;;;0.40;;
22985;SDS011;11659;51.092;7.080;2022-10-16T12:36:54;0.77;;;0.50;;
22985;SDS011;11659;51.092;7.080;2022-10-16T12:39:22;0.60;;;0.50;;
22985;SDS011;11659;51.092;7.080;2022-10-16T12:42:01;1.00;;;0.50;;
22985;SDS011;11659;51.092;7.080;2022-10-16T12:44:33;0.40;;;0.20;;
22985;SDS011;11659;51.092;7.080;2022-10-16T12:47:00;1.03;;;0.30;;
22985;SDS011;11659;51.092;7.080;2022-10-16T12:49:31;1.37;;;0.40;;
22985;SDS011;11659;51.092;7.080;2022-10-16T12:52:00;0.77;;;0.33;;
22985;SDS011;11659;51.092;7.080;2022-10-16T12:54:29;1.27;;;0.50;;
22985;SDS011;11659;51.092;7.080;2022-10-16T12:59:58;0.70;;;0.40;;
22985;SDS011;11659;51.092;7.080;2022-10-16T13:02:46;1.50;;;0.43;;
22985;SDS011;11659;51.092;7.080;2022-10-16T13:05:40;0.77;;;0.37;;
22985;SDS011;11659;51.092;7.080;2022-10-16T13:08:25;0.40;;;0.40;;
22985;SDS011;11659;51.092;7.080;2022-10-16T13:11:05;0.93;;;0.43;;
22985;SDS011;11659;51.092;7.080;2022-10-16T13:13:53;1.27;;;0.53;;
22985;SDS011;11659;51.092;7.080;2022-10-16T13:16:45;0.97;;;0.47;;
22985;SDS011;11659;51.092;7.080;2022-10-16T13:19:22;0.50;;;0.30;;
22985;SDS011;11659;51.092;7.080;2022-10-16T13:21:55;0.73;;;0.50;;
22985;SDS011;11659;51.092;7.080;2022-10-16T13:24:31;0.50;;;0.30;;
22985;SDS011;11659;51.092;7.080;2022-10-16T13:27:09;1.10;;;0.70;;
22985;SDS011;11659;51.092;7.080;2022-10-16T13:29:43;1.73;;;0.40;;
22985;SDS011;11659;51.092;7.080;2022-10-16T13:32:10;0.60;;;0.30;;
22985;SDS011;11659;51.092;7.080;2022-10-16T13:34:43;0.63;;;0.47;;
22985;SDS011;11659;51.092;7.080;2022-10-16T13:37:16;0.93;;;0.40;;
22985;SDS011;11659;51.092;7.080;2022-10-16T13:39:43;1.20;;;0.50;;
22985;SDS011;11659;51.092;7.080;2022-10-16T13:42:10;0.80;;;0.40;;
22985;SDS011;11659;51.092;7.080;2022-10-16T13:44:46;1.00;;;0.40;;
22985;SDS011;11659;51.092;7.080;2022-10-16T13:47:15;0.73;;;0.53;;
22985;SDS011;11659;51.092;7.080;2022-10-16T13:49:42;1.60;;;0.43;;
22985;SDS011;11659;51.092;7.080;2022-10-16T13:52:15;1.33;;;0.40;;
22985;SDS011;11659;51.092;7.080;2022-10-16T13:54:42;1.20;;;0.43;;
22985;SDS011;11659;51.092;7.080;2022-10-16T13:57:11;1.83;;;0.40;;
22985;SDS011;11659;51.092;7.080;2022-10-16T13:59:39;0.97;;;0.57;;
22985;SDS011;11659;51.092;7.080;2022-10-16T14:02:08;0.83;;;0.40;;
22985;SDS011;11659;51.092;7.080;2022-10-16T14:04:43;1.23;;;0.40;;
22985;SDS011;11659;51.092;7.080;2022-10-16T14:07:11;0.83;;;0.60;;
22985;SDS011;11659;51.092;7.080;2022-10-16T14:09:40;0.40;;;0.40;;
22985;SDS011;11659;51.092;7.080;2022-10-16T14:12:08;1.63;;;0.70;;
22985;SDS011;11659;51.092;7.080;2022-10-16T14:14:39;0.37;;;0.33;;
22985;SDS011;11659;51.092;7.080;2022-10-16T14:17:14;0.57;;;0.50;;
22985;SDS011;11659;51.092;7.080;2022-10-16T14:19:40;1.90;;;0.57;;
22985;SDS011;11659;51.092;7.080;2022-10-16T14:22:26;1.30;;;0.50;;
22985;SDS011;11659;51.092;7.080;2022-10-16T14:24:55;0.70;;;0.33;;
22985;SDS011;11659;51.092;7.080;2022-10-16T14:27:23;1.10;;;0.43;;
22985;SDS011;11659;51.092;7.080;2022-10-16T14:30:03;0.30;;;0.30;;
22985;SDS011;11659;51.092;7.080;2022-10-16T14:32:42;0.97;;;0.50;;
22985;SDS011;11659;51.092;7.080;2022-10-16T14:35:23;0.80;;;0.50;;
22985;SDS011;11659;51.092;7.080;2022-10-16T14:37:51;0.50;;;0.30;;
22985;SDS011;11659;51.092;7.080;2022-10-16T14:40:18;0.50;;;0.30;;
22985;SDS011;11659;51.092;7.080;2022-10-16T14:42:45;0.70;;;0.30;;
22985;SDS011;11659;51.092;7.080;2022-10-16T14:45:11;0.40;;;0.30;;
22985;SDS011;11659;51.092;7.080;2022-10-16T14:47:37;0.80;;;0.40;;
22985;SDS011;11659;51.092;7.080;2022-10-16T14:50:15;0.30;;;0.30;;
22985;SDS011;11659;51.092;7.080;2022-10-16T14:52:41;0.27;;;0.23;;
22985;SDS011;11659;51.092;7.080;2022-10-16T14:55:09;0.87;;;0.40;;
22985;SDS011;11659;51.092;7.080;2022-10-16T14:57:35;0.30;;;0.30;;
22985;SDS011;11659;51.092;7.080;2022-10-16T15:00:04;0.30;;;0.30;;
22985;SDS011;11659;51.092;7.080;2022-10-16T15:02:39;0.47;;;0.33;;
22985;SDS011;11659;51.092;7.080;2022-10-16T15:05:10;0.20;;;0.20;;
22985;SDS011;11659;51.092;7.080;2022-10-16T15:07:39;0.50;;;0.50;;
22985;SDS011;11659;51.092;7.080;2022-10-16T15:10:05;0.33;;;0.20;;